createdAt,value
2022-12-25T00:01:51.850Z,94.09
2022-12-25T00:08:54.067Z,94.20
2022-12-25T00:15:56.617Z,93.92
2022-12-25T00:22:58.861Z,94.35
2022-12-25T00:30:01.593Z,94.59
2022-12-25T00:37:03.735Z,94.70
2022-12-25T00:44:06.655Z,94.81
2022-12-25T00:51:11.571Z,94.75
2022-12-25T00:58:13.476Z,94.89
2022-12-25T01:05:15.603Z,94.84
2022-12-25T01:12:17.612Z,94.83
2022-12-25T01:19:19.530Z,94.92
2022-12-25T01:26:24.663Z,94.95
2022-12-25T01:33:26.679Z,94.58
2022-12-25T01:40:28.626Z,94.95
2022-12-25T01:47:30.613Z,95.05
2022-12-25T01:54:39.938Z,95.14
2022-12-25T02:01:42.294Z,95.31
2022-12-25T02:08:44.433Z,95.33
2022-12-25T02:16:10.644Z,95.48
2022-12-25T02:23:39.559Z,95.61
2022-12-25T02:30:46.500Z,95.86
2022-12-25T02:37:52.941Z,95.68
2022-12-25T02:45:13.476Z,95.96
2022-12-25T02:52:37.648Z,96.13
2022-12-25T02:59:59.639Z,96.15
2022-12-25T03:07:06.447Z,96.20
2022-12-25T03:14:27.731Z,96.53
2022-12-25T03:21:48.005Z,96.77
2022-12-25T03:28:50.017Z,96.86
2022-12-25T03:36:15.238Z,97.36
2022-12-25T03:44:00.605Z,96.96
2022-12-25T03:51:24.468Z,97.12
2022-12-25T03:58:46.311Z,96.98
2022-12-25T04:06:07.043Z,97.17
2022-12-25T04:13:27.677Z,97.04
2022-12-25T04:20:47.951Z,97.13
2022-12-25T04:28:08.609Z,97.08
2022-12-25T04:35:29.205Z,97.32
2022-12-25T04:42:31.115Z,97.30
2022-12-25T04:49:33.058Z,97.81
2022-12-25T04:56:38.658Z,97.69
2022-12-25T05:03:44.054Z,97.57
2022-12-25T05:10:46.142Z,97.45
2022-12-25T05:17:48.079Z,97.42
2022-12-25T05:24:50.144Z,97.90
2022-12-25T05:31:52.181Z,97.96
2022-12-25T05:38:54.089Z,97.97
2022-12-25T05:45:56.413Z,97.82
2022-12-25T05:53:01.502Z,97.86
2022-12-25T06:00:08.308Z,98.07
2022-12-25T06:07:10.250Z,98.15
2022-12-25T06:14:13.577Z,98.05
2022-12-25T06:21:16.448Z,98.10
2022-12-25T06:28:18.329Z,97.92
2022-12-25T06:35:20.312Z,97.70
2022-12-25T06:42:22.335Z,97.89
2022-12-25T06:49:24.652Z,97.78
2022-12-25T06:56:28.186Z,97.65
2022-12-25T07:03:30.891Z,97.86
2022-12-25T07:10:33.000Z,98.13
2022-12-25T07:17:36.116Z,98.16
2022-12-25T07:24:38.088Z,98.00
2022-12-25T07:31:40.246Z,98.16
2022-12-25T07:38:42.769Z,97.98
2022-12-25T07:45:45.017Z,97.93
2022-12-25T07:52:47.277Z,97.90
2022-12-25T07:59:49.269Z,98.21
2022-12-25T08:06:51.298Z,97.70
2022-12-25T08:13:53.287Z,97.65
2022-12-25T08:20:55.649Z,97.85
2022-12-25T08:27:57.855Z,98.19
2022-12-25T08:35:00.133Z,98.23
2022-12-25T08:42:02.142Z,98.02
2022-12-25T08:49:04.282Z,98.21
2022-12-25T08:56:06.608Z,97.48
2022-12-25T09:03:08.723Z,97.40
2022-12-25T09:10:11.249Z,97.79
2022-12-25T09:17:13.317Z,97.45
2022-12-25T09:24:15.377Z,97.68
2022-12-25T09:31:17.479Z,98.02
2022-12-25T09:38:19.536Z,98.23
2022-12-25T09:45:33.197Z,98.27
2022-12-25T09:52:58.911Z,98.54
2022-12-25T10:00:01.191Z,97.87
2022-12-25T10:07:16.862Z,98.32
2022-12-25T10:14:36.408Z,98.07
2022-12-25T10:21:38.808Z,97.86
2022-12-25T10:28:51.823Z,98.40
2022-12-25T10:35:53.922Z,98.86
2022-12-25T10:43:01.846Z,98.18
2022-12-25T10:50:29.316Z,98.24
2022-12-25T10:57:32.690Z,98.46
2022-12-25T11:04:35.457Z,98.24
2022-12-25T11:11:38.452Z,98.46
2022-12-25T11:18:48.065Z,98.70
2022-12-25T11:26:08.389Z,98.34
2022-12-25T11:33:12.941Z,98.25
2022-12-25T11:40:22.512Z,98.00
2022-12-25T11:47:27.043Z,98.21
2022-12-25T11:54:32.715Z,98.30
2022-12-25T12:01:44.261Z,97.73
2022-12-25T12:08:48.812Z,97.49
2022-12-25T12:15:51.006Z,97.71
2022-12-25T12:22:53.361Z,97.38
2022-12-25T12:29:58.164Z,97.33
2022-12-25T12:37:04.816Z,97.63
2022-12-25T12:44:07.884Z,97.63
2022-12-25T12:51:15.657Z,97.41
2022-12-25T12:58:51.273Z,97.51
2022-12-25T13:06:08.586Z,97.53
2022-12-25T13:13:18.339Z,97.47
2022-12-25T13:20:34.769Z,97.70
2022-12-25T13:27:36.830Z,98.05
2022-12-25T13:34:42.668Z,98.47
2022-12-25T13:42:05.134Z,98.78
2022-12-25T13:49:14.996Z,99.17
2022-12-25T13:56:17.082Z,99.47
2022-12-25T14:03:23.223Z,100.00
2022-12-25T14:10:28.098Z,100.00
2022-12-25T14:17:30.187Z,99.77
2022-12-25T14:24:33.668Z,99.34
2022-12-25T14:31:38.669Z,99.44
2022-12-25T14:38:42.804Z,99.02
2022-12-25T14:45:55.166Z,99.06
2022-12-25T14:52:58.278Z,98.74
2022-12-25T15:00:05.677Z,98.75
2022-12-25T15:07:26.148Z,98.26
2022-12-25T15:14:28.214Z,98.43
2022-12-25T15:21:32.075Z,98.34
2022-12-25T15:28:34.105Z,98.22
2022-12-25T15:35:38.743Z,98.30
2022-12-25T15:42:41.229Z,98.30
2022-12-25T15:49:43.655Z,98.05
2022-12-25T15:56:52.630Z,97.77
2022-12-25T16:03:54.673Z,97.89
2022-12-25T16:10:56.761Z,97.64
2022-12-25T16:17:58.938Z,97.58
2022-12-25T16:25:01.343Z,97.69
2022-12-25T16:32:03.375Z,97.56
2022-12-25T16:39:05.845Z,97.60
2022-12-25T16:46:13.981Z,97.79
2022-12-25T16:53:16.006Z,98.67
2022-12-25T17:00:18.809Z,98.77
2022-12-25T17:07:20.873Z,98.71
2022-12-25T17:14:22.987Z,98.96
2022-12-25T17:21:26.681Z,99.13
2022-12-25T17:28:28.780Z,98.85
2022-12-25T17:35:30.803Z,98.45
2022-12-25T17:42:33.069Z,98.23
2022-12-25T17:49:36.530Z,98.29
2022-12-25T17:56:38.886Z,98.37
2022-12-25T18:03:41.160Z,98.29
2022-12-25T18:10:44.234Z,98.29
2022-12-25T18:17:46.550Z,98.31
2022-12-25T18:24:49.218Z,97.94
2022-12-25T18:31:51.506Z,97.97
2022-12-25T18:38:54.566Z,98.18
2022-12-25T18:45:58.426Z,98.14
2022-12-25T18:53:00.622Z,98.09
2022-12-25T19:00:04.874Z,98.22
2022-12-25T19:07:07.025Z,98.16
2022-12-25T19:14:09.810Z,98.13
2022-12-25T19:21:12.365Z,98.12
2022-12-25T19:28:14.450Z,98.07
2022-12-25T19:35:16.442Z,98.50
2022-12-25T19:42:19.099Z,98.27
2022-12-25T19:49:21.238Z,98.47
2022-12-25T19:56:24.467Z,98.61
2022-12-25T20:03:27.075Z,98.58
2022-12-25T20:10:39.002Z,98.89
2022-12-25T20:17:41.565Z,98.89
2022-12-25T20:24:43.960Z,98.81
2022-12-25T20:31:46.190Z,98.86
2022-12-25T20:38:49.231Z,98.99
2022-12-25T20:45:52.179Z,98.92
2022-12-25T20:52:54.988Z,98.82
2022-12-25T20:59:56.981Z,98.93
2022-12-25T21:06:59.197Z,98.99
2022-12-25T21:14:01.145Z,98.83
2022-12-25T21:21:06.024Z,98.71
2022-12-25T21:28:07.988Z,98.56
2022-12-25T21:35:10.181Z,98.55
2022-12-25T21:42:13.162Z,98.49
2022-12-25T21:49:35.583Z,98.48
2022-12-25T21:56:44.627Z,98.85
2022-12-25T22:03:47.512Z,98.66
2022-12-25T22:10:49.449Z,98.75
2022-12-25T22:18:09.819Z,98.83
2022-12-25T22:25:13.000Z,98.62
2022-12-25T22:32:16.352Z,98.58
2022-12-25T22:39:18.319Z,98.51
2022-12-25T22:46:20.373Z,98.29
2022-12-25T22:53:22.396Z,98.18
2022-12-25T23:00:24.404Z,98.30
2022-12-25T23:07:26.434Z,98.75
2022-12-25T23:14:40.401Z,98.79
2022-12-25T23:22:01.166Z,98.88
2022-12-25T23:29:21.772Z,99.20
2022-12-25T23:36:24.078Z,99.52
2022-12-25T23:43:26.052Z,99.75
2022-12-25T23:50:32.469Z,99.66
2022-12-25T23:57:36.625Z,99.63
